Airfield :
LOGIN :

Register | Disclaimer

   EN    FR    IT 

 










Legend :    VFR   Marginal VFR   IFR   Intensive IFR   Very Intensive IFR
Visi :
Ceiling :
>= 8 km
>= 3000ft
5 to 8 km
1000 to 3000 ft
1500m to 5 km
500 to 1000 ft
800 to 1500m
200 to 500 ft
< 800m
< 200 ft
Symbols :   Thunderstorms  Fog  Heavy snow  Heavy precipitations  Wind > 20 kt
SIGMETs :     Misc.  Thunderstorms  Icing  Turbulence  Mountain Waves  Volcanic Ashes






- Airport Elevation : 2936 ft


LECH - Calamocha

CURRENT METAR :
  • 171130Z AUTO 01006KT CAVOK 20/00 Q1015

EXPIRED METARs :
  • 171100Z AUTO 36005KT CAVOK 20/00 Q1015
  • 171030Z AUTO 36006KT 300V060 CAVOK 19/M00 Q1015
  • 171000Z AUTO 33016KT 290V010 CAVOK 18/M01 Q1015
  • 170930Z AUTO 36008KT 300V050 CAVOK 17/00 Q1016
  • 170900Z AUTO 34014G25KT 280V030 CAVOK 17/M00 Q1016
  • 170830Z AUTO 30012KT 250V350 CAVOK 16/00 Q1016
  • 170800Z AUTO 31013KT 250V360 CAVOK 15/01 Q1016
  • 170730Z AUTO 30013G23KT 250V350 CAVOK 14/01 Q1016

Expired Forecast.



MET'MAP, your aeronautical weather chart ! - Copyright ORBIFLY December 2007 - Disclaimer

ORBIFLY MET'MAP TEAM :

Programming & Development : Alexandra Zaïnal
Original concept : Baudouin d'Aumeries
Technical & hardware support : Manuel Goepfert
Assistance : Marc-Olivier Méhu




SOURCES & CREDITS :

   NOAA